sensor_id;sensor_type;location;lat;lon;timestamp;P1;durP1;ratioP1;P2;durP2;ratioP2
72065;SDS011;59939;52.516;13.420;2023-05-10T00:01:51;13.77;;;5.63;;
72065;SDS011;59939;52.516;13.420;2023-05-10T00:04:56;13.00;;;5.03;;
72065;SDS011;59939;52.516;13.420;2023-05-10T00:08:02;14.85;;;6.32;;
72065;SDS011;59939;52.516;13.420;2023-05-10T00:11:06;15.38;;;5.45;;
72065;SDS011;59939;52.516;13.420;2023-05-10T00:14:09;12.30;;;5.13;;
72065;SDS011;59939;52.516;13.420;2023-05-10T00:17:14;12.95;;;5.78;;
72065;SDS011;59939;52.516;13.420;2023-05-10T00:23:51;13.95;;;5.95;;
72065;SDS011;59939;52.516;13.420;2023-05-10T00:26:57;15.68;;;5.13;;
72065;SDS011;59939;52.516;13.420;2023-05-10T00:30:04;14.85;;;6.47;;
72065;SDS011;59939;52.516;13.420;2023-05-10T00:33:09;15.32;;;6.47;;
72065;SDS011;59939;52.516;13.420;2023-05-10T00:36:13;14.02;;;6.32;;
72065;SDS011;59939;52.516;13.420;2023-05-10T00:39:18;17.63;;;6.38;;
72065;SDS011;59939;52.516;13.420;2023-05-10T00:42:22;14.73;;;6.43;;
72065;SDS011;59939;52.516;13.420;2023-05-10T00:45:31;14.33;;;5.63;;
72065;SDS011;59939;52.516;13.420;2023-05-10T00:48:37;16.20;;;6.30;;
72065;SDS011;59939;52.516;13.420;2023-05-10T00:51:44;14.50;;;6.50;;
72065;SDS011;59939;52.516;13.420;2023-05-10T00:54:48;13.60;;;6.17;;
72065;SDS011;59939;52.516;13.420;2023-05-10T00:57:55;14.20;;;6.50;;
72065;SDS011;59939;52.516;13.420;2023-05-10T01:00:59;15.40;;;6.80;;
72065;SDS011;59939;52.516;13.420;2023-05-10T01:04:04;12.70;;;5.57;;
72065;SDS011;59939;52.516;13.420;2023-05-10T01:07:15;14.97;;;6.17;;
72065;SDS011;59939;52.516;13.420;2023-05-10T01:10:24;14.00;;;6.33;;
72065;SDS011;59939;52.516;13.420;2023-05-10T01:13:35;15.40;;;6.57;;
72065;SDS011;59939;52.516;13.420;2023-05-10T01:16:40;16.47;;;5.97;;
72065;SDS011;59939;52.516;13.420;2023-05-10T01:19:52;14.33;;;6.10;;
72065;SDS011;59939;52.516;13.420;2023-05-10T01:29:48;14.00;;;5.93;;
72065;SDS011;59939;52.516;13.420;2023-05-10T01:42:53;17.50;;;6.80;;
72065;SDS011;59939;52.516;13.420;2023-05-10T01:46:12;13.73;;;5.77;;
72065;SDS011;59939;52.516;13.420;2023-05-10T01:49:34;12.80;;;5.47;;
72065;SDS011;59939;52.516;13.420;2023-05-10T01:53:04;12.73;;;5.60;;
72065;SDS011;59939;52.516;13.420;2023-05-10T01:56:08;15.50;;;6.40;;
72065;SDS011;59939;52.516;13.420;2023-05-10T01:59:15;16.63;;;6.17;;
72065;SDS011;59939;52.516;13.420;2023-05-10T02:02:21;12.93;;;5.93;;
72065;SDS011;59939;52.516;13.420;2023-05-10T02:05:25;14.77;;;6.17;;
72065;SDS011;59939;52.516;13.420;2023-05-10T02:08:31;14.23;;;5.83;;
72065;SDS011;59939;52.516;13.420;2023-05-10T02:11:45;16.37;;;6.47;;
72065;SDS011;59939;52.516;13.420;2023-05-10T02:14:59;12.83;;;5.43;;
72065;SDS011;59939;52.516;13.420;2023-05-10T02:18:07;14.80;;;6.00;;
72065;SDS011;59939;52.516;13.420;2023-05-10T02:21:13;13.13;;;5.80;;
72065;SDS011;59939;52.516;13.420;2023-05-10T02:24:17;12.93;;;5.37;;
72065;SDS011;59939;52.516;13.420;2023-05-10T02:27:22;15.23;;;5.93;;
72065;SDS011;59939;52.516;13.420;2023-05-10T02:30:27;15.77;;;6.03;;
72065;SDS011;59939;52.516;13.420;2023-05-10T02:33:31;15.67;;;6.37;;
72065;SDS011;59939;52.516;13.420;2023-05-10T02:36:36;17.27;;;5.83;;
72065;SDS011;59939;52.516;13.420;2023-05-10T02:39:41;14.20;;;6.27;;
72065;SDS011;59939;52.516;13.420;2023-05-10T02:42:47;19.30;;;5.97;;
72065;SDS011;59939;52.516;13.420;2023-05-10T02:45:52;15.43;;;6.10;;
72065;SDS011;59939;52.516;13.420;2023-05-10T02:48:56;12.77;;;5.27;;
72065;SDS011;59939;52.516;13.420;2023-05-10T02:52:00;15.87;;;6.30;;
72065;SDS011;59939;52.516;13.420;2023-05-10T02:55:07;14.20;;;5.60;;
72065;SDS011;59939;52.516;13.420;2023-05-10T02:58:12;15.73;;;5.57;;
72065;SDS011;59939;52.516;13.420;2023-05-10T03:01:16;16.23;;;5.93;;
72065;SDS011;59939;52.516;13.420;2023-05-10T03:04:21;14.97;;;6.17;;
72065;SDS011;59939;52.516;13.420;2023-05-10T03:07:25;13.30;;;5.80;;
72065;SDS011;59939;52.516;13.420;2023-05-10T03:10:29;14.23;;;5.97;;
72065;SDS011;59939;52.516;13.420;2023-05-10T03:13:44;15.60;;;6.13;;
72065;SDS011;59939;52.516;13.420;2023-05-10T03:16:53;15.70;;;6.17;;
72065;SDS011;59939;52.516;13.420;2023-05-10T03:20:06;14.83;;;5.77;;
72065;SDS011;59939;52.516;13.420;2023-05-10T03:23:12;13.97;;;5.80;;
72065;SDS011;59939;52.516;13.420;2023-05-10T03:26:18;13.73;;;5.57;;
72065;SDS011;59939;52.516;13.420;2023-05-10T03:29:25;12.90;;;5.17;;
72065;SDS011;59939;52.516;13.420;2023-05-10T03:32:29;16.03;;;6.50;;
72065;SDS011;59939;52.516;13.420;2023-05-10T03:35:36;15.40;;;5.50;;
72065;SDS011;59939;52.516;13.420;2023-05-10T03:38:40;12.37;;;5.43;;
72065;SDS011;59939;52.516;13.420;2023-05-10T03:41:44;16.97;;;6.00;;
72065;SDS011;59939;52.516;13.420;2023-05-10T03:44:48;16.37;;;6.47;;
72065;SDS011;59939;52.516;13.420;2023-05-10T03:47:53;13.87;;;5.47;;
72065;SDS011;59939;52.516;13.420;2023-05-10T03:50:58;14.13;;;5.43;;
72065;SDS011;59939;52.516;13.420;2023-05-10T03:54:02;14.13;;;5.60;;
72065;SDS011;59939;52.516;13.420;2023-05-10T03:57:06;18.80;;;5.80;;
72065;SDS011;59939;52.516;13.420;2023-05-10T04:00:10;13.73;;;5.77;;
72065;SDS011;59939;52.516;13.420;2023-05-10T04:03:18;13.93;;;5.40;;
72065;SDS011;59939;52.516;13.420;2023-05-10T04:06:22;13.43;;;5.50;;
72065;SDS011;59939;52.516;13.420;2023-05-10T04:09:26;13.13;;;5.17;;
72065;SDS011;59939;52.516;13.420;2023-05-10T04:12:30;15.33;;;5.13;;
72065;SDS011;59939;52.516;13.420;2023-05-10T04:15:34;12.50;;;4.87;;
72065;SDS011;59939;52.516;13.420;2023-05-10T04:18:38;15.67;;;5.60;;
72065;SDS011;59939;52.516;13.420;2023-05-10T04:21:43;13.13;;;5.40;;
72065;SDS011;59939;52.516;13.420;2023-05-10T04:24:47;14.20;;;5.20;;
72065;SDS011;59939;52.516;13.420;2023-05-10T04:27:50;13.87;;;4.80;;
72065;SDS011;59939;52.516;13.420;2023-05-10T04:31:08;14.70;;;5.47;;
72065;SDS011;59939;52.516;13.420;2023-05-10T04:34:12;12.70;;;5.00;;
72065;SDS011;59939;52.516;13.420;2023-05-10T04:37:15;14.23;;;5.37;;
72065;SDS011;59939;52.516;13.420;2023-05-10T04:40:19;13.57;;;4.77;;
72065;SDS011;59939;52.516;13.420;2023-05-10T04:43:23;18.20;;;5.20;;
72065;SDS011;59939;52.516;13.420;2023-05-10T04:46:27;11.97;;;4.97;;
72065;SDS011;59939;52.516;13.420;2023-05-10T04:49:31;13.43;;;5.10;;
72065;SDS011;59939;52.516;13.420;2023-05-10T04:52:35;11.93;;;4.37;;
72065;SDS011;59939;52.516;13.420;2023-05-10T04:55:40;13.20;;;4.80;;
72065;SDS011;59939;52.516;13.420;2023-05-10T04:58:44;12.43;;;5.07;;
72065;SDS011;59939;52.516;13.420;2023-05-10T05:01:48;11.03;;;4.50;;
72065;SDS011;59939;52.516;13.420;2023-05-10T05:04:52;14.90;;;4.97;;
72065;SDS011;59939;52.516;13.420;2023-05-10T05:07:56;10.50;;;4.23;;
72065;SDS011;59939;52.516;13.420;2023-05-10T05:10:59;11.93;;;4.60;;
72065;SDS011;59939;52.516;13.420;2023-05-10T05:14:03;12.63;;;5.17;;
72065;SDS011;59939;52.516;13.420;2023-05-10T05:17:07;13.02;;;4.60;;
72065;SDS011;59939;52.516;13.420;2023-05-10T05:20:11;12.67;;;5.17;;
72065;SDS011;59939;52.516;13.420;2023-05-10T05:23:16;11.77;;;4.63;;
72065;SDS011;59939;52.516;13.420;2023-05-10T05:26:22;12.05;;;4.90;;
72065;SDS011;59939;52.516;13.420;2023-05-10T05:29:25;14.43;;;4.73;;
72065;SDS011;59939;52.516;13.420;2023-05-10T05:32:29;11.90;;;4.70;;
72065;SDS011;59939;52.516;13.420;2023-05-10T05:35:33;9.50;;;3.80;;
72065;SDS011;59939;52.516;13.420;2023-05-10T05:38:36;14.73;;;4.55;;
72065;SDS011;59939;52.516;13.420;2023-05-10T05:41:47;14.45;;;4.43;;
72065;SDS011;59939;52.516;13.420;2023-05-10T05:44:51;10.20;;;3.72;;
72065;SDS011;59939;52.516;13.420;2023-05-10T05:47:55;13.07;;;4.28;;
72065;SDS011;59939;52.516;13.420;2023-05-10T05:50:59;14.07;;;3.70;;
72065;SDS011;59939;52.516;13.420;2023-05-10T05:54:04;12.20;;;3.90;;
72065;SDS011;59939;52.516;13.420;2023-05-10T05:57:08;13.98;;;3.72;;
72065;SDS011;59939;52.516;13.420;2023-05-10T06:00:12;10.63;;;3.50;;
72065;SDS011;59939;52.516;13.420;2023-05-10T06:03:17;11.45;;;3.70;;
72065;SDS011;59939;52.516;13.420;2023-05-10T06:06:21;12.13;;;3.70;;
72065;SDS011;59939;52.516;13.420;2023-05-10T06:09:32;9.27;;;3.22;;
72065;SDS011;59939;52.516;13.420;2023-05-10T06:12:36;10.68;;;3.20;;
72065;SDS011;59939;52.516;13.420;2023-05-10T06:15:39;8.90;;;3.17;;
72065;SDS011;59939;52.516;13.420;2023-05-10T06:18:43;12.18;;;4.13;;
72065;SDS011;59939;52.516;13.420;2023-05-10T06:21:46;8.90;;;3.15;;
72065;SDS011;59939;52.516;13.420;2023-05-10T06:24:51;11.18;;;3.60;;
72065;SDS011;59939;52.516;13.420;2023-05-10T06:27:55;9.05;;;3.25;;
72065;SDS011;59939;52.516;13.420;2023-05-10T06:31:01;11.88;;;3.95;;
72065;SDS011;59939;52.516;13.420;2023-05-10T06:34:05;7.68;;;3.47;;
72065;SDS011;59939;52.516;13.420;2023-05-10T06:37:11;10.93;;;2.95;;
72065;SDS011;59939;52.516;13.420;2023-05-10T06:40:15;7.13;;;2.80;;
72065;SDS011;59939;52.516;13.420;2023-05-10T06:43:19;9.43;;;2.88;;
72065;SDS011;59939;52.516;13.420;2023-05-10T06:46:23;9.48;;;3.17;;
72065;SDS011;59939;52.516;13.420;2023-05-10T06:49:27;7.70;;;3.38;;
72065;SDS011;59939;52.516;13.420;2023-05-10T06:52:31;7.00;;;2.88;;
72065;SDS011;59939;52.516;13.420;2023-05-10T06:55:35;8.20;;;2.90;;
72065;SDS011;59939;52.516;13.420;2023-05-10T06:58:39;9.60;;;3.42;;
72065;SDS011;59939;52.516;13.420;2023-05-10T07:01:45;7.60;;;3.20;;
72065;SDS011;59939;52.516;13.420;2023-05-10T07:04:49;10.63;;;3.30;;
72065;SDS011;59939;52.516;13.420;2023-05-10T07:08:04;9.50;;;3.13;;
72065;SDS011;59939;52.516;13.420;2023-05-10T07:11:10;7.88;;;2.95;;
72065;SDS011;59939;52.516;13.420;2023-05-10T07:14:16;7.95;;;3.03;;
72065;SDS011;59939;52.516;13.420;2023-05-10T07:17:20;12.00;;;3.35;;
72065;SDS011;59939;52.516;13.420;2023-05-10T07:20:24;9.60;;;3.05;;
72065;SDS011;59939;52.516;13.420;2023-05-10T07:23:37;8.95;;;3.03;;
72065;SDS011;59939;52.516;13.420;2023-05-10T07:26:44;8.77;;;3.15;;
72065;SDS011;59939;52.516;13.420;2023-05-10T07:29:51;10.95;;;3.85;;
72065;SDS011;59939;52.516;13.420;2023-05-10T07:32:54;6.43;;;2.63;;
72065;SDS011;59939;52.516;13.420;2023-05-10T07:35:58;9.98;;;2.97;;
72065;SDS011;59939;52.516;13.420;2023-05-10T07:39:02;12.40;;;3.50;;
72065;SDS011;59939;52.516;13.420;2023-05-10T07:42:08;8.48;;;2.50;;
72065;SDS011;59939;52.516;13.420;2023-05-10T07:45:12;12.90;;;3.33;;
72065;SDS011;59939;52.516;13.420;2023-05-10T07:48:16;10.45;;;3.47;;
72065;SDS011;59939;52.516;13.420;2023-05-10T07:51:20;15.77;;;3.35;;
72065;SDS011;59939;52.516;13.420;2023-05-10T07:54:27;12.40;;;3.25;;
72065;SDS011;59939;52.516;13.420;2023-05-10T07:57:34;12.23;;;3.13;;
72065;SDS011;59939;52.516;13.420;2023-05-10T08:00:38;11.63;;;2.95;;
72065;SDS011;59939;52.516;13.420;2023-05-10T08:03:45;10.02;;;2.92;;
72065;SDS011;59939;52.516;13.420;2023-05-10T08:06:53;7.40;;;2.83;;
72065;SDS011;59939;52.516;13.420;2023-05-10T08:09:59;10.80;;;2.92;;
72065;SDS011;59939;52.516;13.420;2023-05-10T08:13:06;7.35;;;2.97;;
72065;SDS011;59939;52.516;13.420;2023-05-10T08:16:10;8.15;;;3.00;;
72065;SDS011;59939;52.516;13.420;2023-05-10T08:19:14;8.27;;;2.97;;
72065;SDS011;59939;52.516;13.420;2023-05-10T08:22:20;10.25;;;3.22;;
72065;SDS011;59939;52.516;13.420;2023-05-10T08:25:24;9.43;;;3.55;;
72065;SDS011;59939;52.516;13.420;2023-05-10T08:28:30;7.85;;;3.03;;
72065;SDS011;59939;52.516;13.420;2023-05-10T08:31:34;6.38;;;3.03;;
72065;SDS011;59939;52.516;13.420;2023-05-10T08:34:37;12.00;;;3.22;;
72065;SDS011;59939;52.516;13.420;2023-05-10T08:37:41;8.80;;;3.03;;
72065;SDS011;59939;52.516;13.420;2023-05-10T08:40:45;9.15;;;2.80;;
72065;SDS011;59939;52.516;13.420;2023-05-10T08:43:49;9.95;;;3.10;;
72065;SDS011;59939;52.516;13.420;2023-05-10T08:46:53;12.35;;;3.35;;
72065;SDS011;59939;52.516;13.420;2023-05-10T08:49:57;12.68;;;3.30;;
72065;SDS011;59939;52.516;13.420;2023-05-10T08:53:08;6.38;;;2.70;;
72065;SDS011;59939;52.516;13.420;2023-05-10T08:56:12;8.35;;;3.20;;
72065;SDS011;59939;52.516;13.420;2023-05-10T08:59:16;11.38;;;2.90;;
72065;SDS011;59939;52.516;13.420;2023-05-10T09:02:19;9.65;;;3.03;;
72065;SDS011;59939;52.516;13.420;2023-05-10T09:05:24;10.00;;;2.88;;
72065;SDS011;59939;52.516;13.420;2023-05-10T09:08:28;10.70;;;2.90;;
72065;SDS011;59939;52.516;13.420;2023-05-10T09:11:33;7.88;;;2.72;;
72065;SDS011;59939;52.516;13.420;2023-05-10T09:14:37;9.13;;;3.25;;
72065;SDS011;59939;52.516;13.420;2023-05-10T09:17:41;7.50;;;2.80;;
72065;SDS011;59939;52.516;13.420;2023-05-10T09:20:49;9.77;;;3.03;;
72065;SDS011;59939;52.516;13.420;2023-05-10T09:23:53;13.30;;;3.10;;
72065;SDS011;59939;52.516;13.420;2023-05-10T09:26:58;6.40;;;3.08;;
72065;SDS011;59939;52.516;13.420;2023-05-10T09:30:02;7.13;;;3.10;;
72065;SDS011;59939;52.516;13.420;2023-05-10T09:33:06;9.00;;;2.97;;
72065;SDS011;59939;52.516;13.420;2023-05-10T09:36:10;9.30;;;2.92;;
72065;SDS011;59939;52.516;13.420;2023-05-10T09:39:16;6.13;;;2.88;;
72065;SDS011;59939;52.516;13.420;2023-05-10T09:42:21;8.18;;;3.03;;
72065;SDS011;59939;52.516;13.420;2023-05-10T09:45:27;9.63;;;3.10;;
72065;SDS011;59939;52.516;13.420;2023-05-10T09:48:41;9.85;;;3.13;;
72065;SDS011;59939;52.516;13.420;2023-05-10T09:51:45;8.30;;;3.05;;
72065;SDS011;59939;52.516;13.420;2023-05-10T09:54:53;5.85;;;2.63;;
72065;SDS011;59939;52.516;13.420;2023-05-10T09:58:00;11.00;;;2.95;;
72065;SDS011;59939;52.516;13.420;2023-05-10T10:01:18;6.88;;;2.72;;
72065;SDS011;59939;52.516;13.420;2023-05-10T10:04:22;7.15;;;2.58;;
72065;SDS011;59939;52.516;13.420;2023-05-10T10:07:26;9.98;;;3.22;;
72065;SDS011;59939;52.516;13.420;2023-05-10T10:10:35;8.55;;;2.85;;
72065;SDS011;59939;52.516;13.420;2023-05-10T10:13:39;10.95;;;3.40;;
72065;SDS011;59939;52.516;13.420;2023-05-10T10:16:43;9.52;;;3.03;;
72065;SDS011;59939;52.516;13.420;2023-05-10T10:19:54;7.05;;;2.70;;
72065;SDS011;59939;52.516;13.420;2023-05-10T10:22:58;11.18;;;3.30;;
72065;SDS011;59939;52.516;13.420;2023-05-10T10:26:02;9.73;;;3.15;;
72065;SDS011;59939;52.516;13.420;2023-05-10T10:29:25;10.07;;;3.45;;
72065;SDS011;59939;52.516;13.420;2023-05-10T10:32:53;7.78;;;2.55;;
72065;SDS011;59939;52.516;13.420;2023-05-10T10:36:11;8.40;;;3.00;;
72065;SDS011;59939;52.516;13.420;2023-05-10T10:39:17;8.55;;;2.53;;
72065;SDS011;59939;52.516;13.420;2023-05-10T10:49:18;5.45;;;2.13;;
72065;SDS011;59939;52.516;13.420;2023-05-10T10:52:26;5.15;;;2.20;;
72065;SDS011;59939;52.516;13.420;2023-05-10T10:55:34;10.13;;;2.75;;
72065;SDS011;59939;52.516;13.420;2023-05-10T10:58:39;9.55;;;3.42;;
72065;SDS011;59939;52.516;13.420;2023-05-10T11:01:51;10.73;;;3.00;;
72065;SDS011;59939;52.516;13.420;2023-05-10T11:04:55;9.00;;;2.75;;
72065;SDS011;59939;52.516;13.420;2023-05-10T11:07:59;8.45;;;3.10;;
72065;SDS011;59939;52.516;13.420;2023-05-10T11:11:04;9.60;;;3.10;;
72065;SDS011;59939;52.516;13.420;2023-05-10T11:14:11;7.47;;;2.78;;
72065;SDS011;59939;52.516;13.420;2023-05-10T11:17:30;7.47;;;2.65;;
72065;SDS011;59939;52.516;13.420;2023-05-10T11:20:38;9.65;;;3.10;;
72065;SDS011;59939;52.516;13.420;2023-05-10T11:26:48;7.40;;;3.22;;
72065;SDS011;59939;52.516;13.420;2023-05-10T11:29:53;9.50;;;3.05;;
72065;SDS011;59939;52.516;13.420;2023-05-10T11:32:57;11.75;;;3.17;;
72065;SDS011;59939;52.516;13.420;2023-05-10T11:36:00;12.43;;;3.60;;
72065;SDS011;59939;52.516;13.420;2023-05-10T11:39:05;13.35;;;2.95;;
72065;SDS011;59939;52.516;13.420;2023-05-10T11:42:09;9.48;;;3.22;;
72065;SDS011;59939;52.516;13.420;2023-05-10T11:45:14;9.70;;;2.92;;
72065;SDS011;59939;52.516;13.420;2023-05-10T11:48:18;11.27;;;3.00;;
72065;SDS011;59939;52.516;13.420;2023-05-10T11:51:25;8.45;;;3.15;;
72065;SDS011;59939;52.516;13.420;2023-05-10T11:54:30;8.32;;;2.35;;
72065;SDS011;59939;52.516;13.420;2023-05-10T11:57:34;11.68;;;3.22;;
72065;SDS011;59939;52.516;13.420;2023-05-10T12:00:38;8.55;;;2.88;;
72065;SDS011;59939;52.516;13.420;2023-05-10T12:03:50;9.43;;;3.00;;
72065;SDS011;59939;52.516;13.420;2023-05-10T12:06:57;7.00;;;2.45;;
72065;SDS011;59939;52.516;13.420;2023-05-10T12:10:17;7.53;;;2.60;;
72065;SDS011;59939;52.516;13.420;2023-05-10T12:13:27;11.38;;;2.70;;
72065;SDS011;59939;52.516;13.420;2023-05-10T12:16:32;9.63;;;2.60;;
72065;SDS011;59939;52.516;13.420;2023-05-10T12:19:39;6.05;;;2.58;;
72065;SDS011;59939;52.516;13.420;2023-05-10T12:22:46;7.97;;;2.70;;
72065;SDS011;59939;52.516;13.420;2023-05-10T12:25:50;9.15;;;2.78;;
72065;SDS011;59939;52.516;13.420;2023-05-10T12:29:16;13.10;;;3.05;;
72065;SDS011;59939;52.516;13.420;2023-05-10T12:32:21;7.60;;;2.47;;
72065;SDS011;59939;52.516;13.420;2023-05-10T12:35:25;8.23;;;2.70;;
72065;SDS011;59939;52.516;13.420;2023-05-10T12:38:41;7.82;;;2.80;;
72065;SDS011;59939;52.516;13.420;2023-05-10T12:41:47;9.35;;;3.03;;
72065;SDS011;59939;52.516;13.420;2023-05-10T12:44:58;9.30;;;3.17;;
72065;SDS011;59939;52.516;13.420;2023-05-10T12:48:03;8.52;;;3.03;;
72065;SDS011;59939;52.516;13.420;2023-05-10T12:51:09;7.30;;;2.72;;
72065;SDS011;59939;52.516;13.420;2023-05-10T12:54:15;7.57;;;2.72;;
72065;SDS011;59939;52.516;13.420;2023-05-10T12:57:20;5.63;;;2.53;;
72065;SDS011;59939;52.516;13.420;2023-05-10T13:00:26;7.60;;;2.67;;
72065;SDS011;59939;52.516;13.420;2023-05-10T13:03:30;8.65;;;2.90;;
72065;SDS011;59939;52.516;13.420;2023-05-10T13:06:48;9.43;;;3.10;;
72065;SDS011;59939;52.516;13.420;2023-05-10T13:09:54;7.22;;;2.95;;
72065;SDS011;59939;52.516;13.420;2023-05-10T13:12:59;10.50;;;2.78;;
72065;SDS011;59939;52.516;13.420;2023-05-10T13:16:09;11.27;;;3.85;;
72065;SDS011;59939;52.516;13.420;2023-05-10T13:19:16;7.70;;;3.42;;
72065;SDS011;59939;52.516;13.420;2023-05-10T13:22:20;6.95;;;3.17;;
72065;SDS011;59939;52.516;13.420;2023-05-10T13:25:28;10.35;;;3.70;;
72065;SDS011;59939;52.516;13.420;2023-05-10T13:28:32;8.18;;;3.05;;
72065;SDS011;59939;52.516;13.420;2023-05-10T13:31:40;9.95;;;3.13;;
72065;SDS011;59939;52.516;13.420;2023-05-10T13:34:45;11.60;;;3.75;;
72065;SDS011;59939;52.516;13.420;2023-05-10T13:37:49;8.60;;;2.58;;
72065;SDS011;59939;52.516;13.420;2023-05-10T13:40:53;8.23;;;3.00;;
72065;SDS011;59939;52.516;13.420;2023-05-10T13:43:57;8.13;;;2.70;;
72065;SDS011;59939;52.516;13.420;2023-05-10T13:47:03;12.07;;;3.15;;
72065;SDS011;59939;52.516;13.420;2023-05-10T13:50:21;6.10;;;2.70;;
72065;SDS011;59939;52.516;13.420;2023-05-10T13:53:25;13.02;;;3.08;;
72065;SDS011;59939;52.516;13.420;2023-05-10T13:56:29;9.25;;;2.42;;
72065;SDS011;59939;52.516;13.420;2023-05-10T13:59:33;8.85;;;2.72;;
72065;SDS011;59939;52.516;13.420;2023-05-10T14:02:37;9.35;;;2.92;;
72065;SDS011;59939;52.516;13.420;2023-05-10T14:05:41;6.50;;;2.45;;
72065;SDS011;59939;52.516;13.420;2023-05-10T14:08:46;4.63;;;2.30;;
72065;SDS011;59939;52.516;13.420;2023-05-10T14:11:53;8.13;;;2.58;;
72065;SDS011;59939;52.516;13.420;2023-05-10T14:14:56;10.25;;;3.45;;
72065;SDS011;59939;52.516;13.420;2023-05-10T14:18:01;7.57;;;3.05;;
72065;SDS011;59939;52.516;13.420;2023-05-10T14:21:06;7.28;;;2.50;;
72065;SDS011;59939;52.516;13.420;2023-05-10T14:24:12;7.32;;;2.75;;
72065;SDS011;59939;52.516;13.420;2023-05-10T14:27:15;11.50;;;2.50;;
72065;SDS011;59939;52.516;13.420;2023-05-10T14:30:26;8.57;;;2.65;;
72065;SDS011;59939;52.516;13.420;2023-05-10T14:33:30;6.63;;;2.83;;
72065;SDS011;59939;52.516;13.420;2023-05-10T14:36:34;11.57;;;2.45;;
72065;SDS011;59939;52.516;13.420;2023-05-10T14:39:38;14.55;;;4.47;;
72065;SDS011;59939;52.516;13.420;2023-05-10T14:42:43;12.80;;;4.60;;
72065;SDS011;59939;52.516;13.420;2023-05-10T14:45:47;12.48;;;4.63;;
72065;SDS011;59939;52.516;13.420;2023-05-10T14:48:51;23.75;;;9.77;;
72065;SDS011;59939;52.516;13.420;2023-05-10T14:51:55;14.40;;;5.30;;
72065;SDS011;59939;52.516;13.420;2023-05-10T14:54:58;9.15;;;3.97;;
72065;SDS011;59939;52.516;13.420;2023-05-10T14:58:04;13.52;;;4.80;;
72065;SDS011;59939;52.516;13.420;2023-05-10T15:01:08;9.63;;;4.40;;
72065;SDS011;59939;52.516;13.420;2023-05-10T15:04:11;11.75;;;2.97;;
72065;SDS011;59939;52.516;13.420;2023-05-10T15:07:19;6.55;;;2.97;;
72065;SDS011;59939;52.516;13.420;2023-05-10T15:10:25;10.50;;;2.85;;
72065;SDS011;59939;52.516;13.420;2023-05-10T15:13:32;5.30;;;2.22;;
72065;SDS011;59939;52.516;13.420;2023-05-10T15:16:37;6.75;;;2.83;;
72065;SDS011;59939;52.516;13.420;2023-05-10T15:19:41;10.93;;;2.58;;
72065;SDS011;59939;52.516;13.420;2023-05-10T15:22:48;8.90;;;2.67;;
72065;SDS011;59939;52.516;13.420;2023-05-10T15:25:55;7.53;;;2.85;;
72065;SDS011;59939;52.516;13.420;2023-05-10T15:29:01;8.35;;;2.35;;
72065;SDS011;59939;52.516;13.420;2023-05-10T15:32:05;11.05;;;3.05;;
72065;SDS011;59939;52.516;13.420;2023-05-10T15:35:11;9.27;;;3.83;;
72065;SDS011;59939;52.516;13.420;2023-05-10T15:38:15;5.47;;;2.60;;
72065;SDS011;59939;52.516;13.420;2023-05-10T15:41:20;6.88;;;2.70;;
72065;SDS011;59939;52.516;13.420;2023-05-10T15:44:24;9.82;;;4.30;;
72065;SDS011;59939;52.516;13.420;2023-05-10T15:47:29;9.52;;;2.80;;
72065;SDS011;59939;52.516;13.420;2023-05-10T15:50:33;7.15;;;2.67;;
72065;SDS011;59939;52.516;13.420;2023-05-10T15:53:37;6.80;;;2.63;;
72065;SDS011;59939;52.516;13.420;2023-05-10T15:56:42;7.80;;;2.92;;
72065;SDS011;59939;52.516;13.420;2023-05-10T16:00:00;4.38;;;2.13;;
72065;SDS011;59939;52.516;13.420;2023-05-10T16:03:15;6.35;;;2.95;;
72065;SDS011;59939;52.516;13.420;2023-05-10T16:06:20;7.90;;;2.67;;
72065;SDS011;59939;52.516;13.420;2023-05-10T16:09:24;8.10;;;2.70;;
72065;SDS011;59939;52.516;13.420;2023-05-10T16:12:30;7.68;;;2.70;;
72065;SDS011;59939;52.516;13.420;2023-05-10T16:15:39;9.65;;;2.80;;
72065;SDS011;59939;52.516;13.420;2023-05-10T16:18:46;11.20;;;3.50;;
72065;SDS011;59939;52.516;13.420;2023-05-10T16:21:52;10.35;;;4.20;;
72065;SDS011;59939;52.516;13.420;2023-05-10T16:24:56;15.40;;;3.42;;
72065;SDS011;59939;52.516;13.420;2023-05-10T16:28:00;7.75;;;2.60;;
72065;SDS011;59939;52.516;13.420;2023-05-10T16:31:04;9.45;;;3.22;;
72065;SDS011;59939;52.516;13.420;2023-05-10T16:34:08;8.70;;;3.15;;
72065;SDS011;59939;52.516;13.420;2023-05-10T16:37:14;10.75;;;3.45;;
72065;SDS011;59939;52.516;13.420;2023-05-10T16:40:33;12.18;;;3.80;;
72065;SDS011;59939;52.516;13.420;2023-05-10T16:43:37;11.45;;;3.60;;
72065;SDS011;59939;52.516;13.420;2023-05-10T16:46:41;10.93;;;3.97;;
72065;SDS011;59939;52.516;13.420;2023-05-10T16:49:45;11.52;;;3.72;;
72065;SDS011;59939;52.516;13.420;2023-05-10T16:52:53;9.15;;;3.58;;
72065;SDS011;59939;52.516;13.420;2023-05-10T16:55:56;12.52;;;4.30;;
72065;SDS011;59939;52.516;13.420;2023-05-10T16:59:01;10.85;;;4.15;;
72065;SDS011;59939;52.516;13.420;2023-05-10T17:02:05;10.40;;;4.72;;
72065;SDS011;59939;52.516;13.420;2023-05-10T17:05:11;10.93;;;5.00;;
72065;SDS011;59939;52.516;13.420;2023-05-10T17:08:18;15.77;;;5.55;;
72065;SDS011;59939;52.516;13.420;2023-05-10T17:11:22;13.52;;;5.22;;
72065;SDS011;59939;52.516;13.420;2023-05-10T17:14:28;15.60;;;5.78;;
72065;SDS011;59939;52.516;13.420;2023-05-10T17:17:32;11.85;;;5.25;;
72065;SDS011;59939;52.516;13.420;2023-05-10T17:20:39;14.55;;;6.22;;
72065;SDS011;59939;52.516;13.420;2023-05-10T17:23:50;10.25;;;4.63;;
72065;SDS011;59939;52.516;13.420;2023-05-10T17:27:02;18.95;;;6.05;;
72065;SDS011;59939;52.516;13.420;2023-05-10T17:30:07;15.10;;;5.72;;
72065;SDS011;59939;52.516;13.420;2023-05-10T17:33:13;13.80;;;5.50;;
72065;SDS011;59939;52.516;13.420;2023-05-10T17:36:16;16.35;;;5.47;;
72065;SDS011;59939;52.516;13.420;2023-05-10T17:39:21;13.00;;;5.50;;
72065;SDS011;59939;52.516;13.420;2023-05-10T17:42:25;12.73;;;5.28;;
72065;SDS011;59939;52.516;13.420;2023-05-10T17:45:29;13.35;;;6.00;;
72065;SDS011;59939;52.516;13.420;2023-05-10T17:48:37;14.75;;;6.38;;
72065;SDS011;59939;52.516;13.420;2023-05-10T17:51:44;12.82;;;5.47;;
72065;SDS011;59939;52.516;13.420;2023-05-10T17:54:51;14.43;;;5.85;;
72065;SDS011;59939;52.516;13.420;2023-05-10T17:57:58;15.98;;;5.60;;
72065;SDS011;59939;52.516;13.420;2023-05-10T18:01:02;15.73;;;6.18;;
72065;SDS011;59939;52.516;13.420;2023-05-10T18:04:15;14.13;;;6.13;;
72065;SDS011;59939;52.516;13.420;2023-05-10T18:07:18;14.10;;;5.78;;
72065;SDS011;59939;52.516;13.420;2023-05-10T18:10:24;15.02;;;6.30;;
72065;SDS011;59939;52.516;13.420;2023-05-10T18:13:28;17.42;;;6.65;;
72065;SDS011;59939;52.516;13.420;2023-05-10T18:16:32;13.75;;;6.28;;
72065;SDS011;59939;52.516;13.420;2023-05-10T18:19:37;14.77;;;6.90;;
72065;SDS011;59939;52.516;13.420;2023-05-10T18:22:41;13.93;;;5.57;;
72065;SDS011;59939;52.516;13.420;2023-05-10T18:25:48;19.70;;;6.97;;
72065;SDS011;59939;52.516;13.420;2023-05-10T18:28:52;15.70;;;6.63;;
72065;SDS011;59939;52.516;13.420;2023-05-10T18:31:58;13.73;;;5.47;;
72065;SDS011;59939;52.516;13.420;2023-05-10T18:35:02;15.63;;;6.65;;
72065;SDS011;59939;52.516;13.420;2023-05-10T18:38:07;13.35;;;6.93;;
72065;SDS011;59939;52.516;13.420;2023-05-10T18:41:12;17.58;;;5.90;;
72065;SDS011;59939;52.516;13.420;2023-05-10T18:44:17;16.02;;;7.15;;